Flight Track Log - Related Links

Times and Time Zones

All times are in EDT time to prevent confusion due to time zone crossing. See the UAE35 flight status page for this flight to view local times or setup timezone preferences in your user account.

Time Position Orientation Groundspeed Altitude Reporting Facility
EDT Latitude Longitude Course Direction KTS MPH feet Rate Location/Type
Fri 11:45:47 PM 25.2720 55.3360 24° Northeast 204 235 1,000  Level FlightAware ADS-B
Fri 11:46:17 PM 25.2880 55.3080 302° West 210 242 2,200 2,182 Climbing FlightAware ADS-B
Fri 11:46:42 PM 25.3010 55.2840 301° West 228 262 3,000 1,800 Climbing FlightAware ADS-B
Fri 11:46:57 PM 25.3060 55.2640 285° West 251 289 3,400 1,680 Climbing FlightAware ADS-B
Fri 11:47:07 PM 25.3080 55.2520 280° West 257 296 3,700 2,539 Climbing FlightAware ADS-B
Fri 11:49:00 PM 25.4794 55.1018 322° Northwest  Level Estimated
Fri 11:50:00 PM 25.5703 55.0219 322° Northwest  Level Estimated
Fri 11:51:00 PM 25.6612 54.9418 322° Northwest  Level Estimated
Fri 11:52:00 PM 25.7498 54.8636 322° Northwest  Level Estimated
Fri 11:52:42 PM 25.4010 54.7090 322° Northwest 379 436 18,000  Level FlightAware ADS-B
Fri 11:53:22 PM 25.4190 54.6360 285° West 386 444 19,700 2,625 Climbing FlightAware ADS-B
Fri 11:54:02 PM 25.4380 54.5550 285° West 390 449 21,500 2,400 Climbing FlightAware ADS-B
Fri 11:54:47 PM 25.4590 54.4720 286° West 393 452 23,100 2,047 Climbing FlightAware ADS-B
Fri 11:55:27 PM 25.4790 54.3900 285° West 402 463 24,400 1,906 Climbing FlightAware ADS-B
Fri 11:56:12 PM 25.5010 54.3010 285° West 409 471 25,800 1,875 Climbing FlightAware ADS-B
Fri 11:56:47 PM 25.5180 54.2280 284° West 414 476 26,900 1,725 Climbing FlightAware ADS-B
Fri 11:57:32 PM 25.5410 54.1340 285° West 420 483 28,100 1,600 Climbing FlightAware ADS-B
Fri 11:58:17 PM 25.5640 54.0400 285° West 425 489 29,300 1,553 Climbing FlightAware ADS-B
Fri 11:58:57 PM 25.5840 53.9560 285° West 426 490 30,300 2,118 Climbing FlightAware ADS-B
Fri 11:59:42 PM 25.6060 53.8640 285° West 408 470 32,300 2,118 Climbing FlightAware ADS-B
Sat 12:00:22 AM 25.6270 53.7760 285° West 409 471 33,300 1,200 Climbing FlightAware ADS-B
Sat 12:01:07 AM 25.6490 53.6850 285° West 405 466 34,000 494 Climbing FlightAware ADS-B
Sat 12:01:47 AM 25.6680 53.6040 285° West 403 464 34,000  Level FlightAware ADS-B
Sat 12:02:27 AM 25.6850 53.5340 285° West 404 465 34,000  Level FlightAware ADS-B
Sat 12:03:07 AM 25.7040 53.4520 284° West 402 463 34,000  Level FlightAware ADS-B
Sat 12:03:57 AM 25.7300 53.3450 285° West 401 461 34,000  Level FlightAware ADS-B
Sat 12:04:32 AM 25.7440 53.2730 282° West 401 461 34,000  Level FlightAware ADS-B
Sat 12:05:22 AM 25.7550 53.1720 277° West 400 460 34,000  Level FlightAware ADS-B
Sat 12:06:02 AM 25.7650 53.0910 278° West 397 457 34,000  Level FlightAware ADS-B
Sat 12:06:47 AM 25.7970 53.0050 292° West 399 459 34,000  Level FlightAware ADS-B
Sat 12:07:27 AM 25.8320 52.9330 298° West 401 461 34,000  Level FlightAware ADS-B
Sat 12:08:07 AM 25.8680 52.8600 299° West 398 458 34,000  Level FlightAware ADS-B
Sat 12:08:52 AM 25.9070 52.7790 298° West 398 458 34,000  Level FlightAware ADS-B
Sat 12:09:32 AM 25.9420 52.7060 298° West 398 458 34,000  Level FlightAware ADS-B
Sat 12:10:57 AM 26.0130 52.5570 298° West 402 463 34,000  Level FlightAware ADS-B
Sat 12:11:52 AM 26.0650 52.4480 298° West 402 463 34,000  Level FlightAware ADS-B
Sat 12:12:37 AM 26.1040 52.3660 298° West 402 463 34,000  Level FlightAware ADS-B
Sat 12:13:17 AM 26.1380 52.2940 298° West 401 461 34,000  Level FlightAware ADS-B
Sat 12:13:57 AM 26.1750 52.2170 298° West 400 460 34,000  Level FlightAware ADS-B
Sat 12:14:42 AM 26.2130 52.1360 298° West 401 461 34,000  Level FlightAware ADS-B
Sat 12:15:37 AM 26.2540 52.0490 298° West 399 459 34,000  Level FlightAware ADS-B
Sat 12:16:17 AM 26.2910 51.9720 298° West 401 461 34,000  Level FlightAware ADS-B
Sat 12:18:00 AM 26.4434 51.8374 322° Northwest  Level Estimated
Sat 12:19:00 AM 26.5322 51.7589 322° Northwest  Level Estimated
Sat 12:19:47 AM 26.4740 51.5790 322° Northwest 402 463 34,000  Level FlightAware ADS-B
Sat 12:22:00 AM 26.6707 51.4048 322° Northwest  Level Estimated
Sat 12:22:22 AM 26.6080 51.2890 322° Northwest 403 464 34,000  Level FlightAware ADS-B
Sat 12:23:02 AM 26.6420 51.2050 294° West 403 464 34,000  Level FlightAware ADS-B
Sat 12:24:02 AM 26.6860 51.0900 293° West 403 464 34,000  Level FlightAware ADS-B
Sat 12:25:22 AM 26.7450 50.9390 294° West 401 461 34,000  Level FlightAware ADS-B
Sat 12:27:00 AM 26.8899 50.8103 322° Northwest  Level Estimated
Sat 12:27:27 AM 26.8360 50.7040 322° Northwest 404 465 34,000  Level FlightAware ADS-B
Sat 12:28:22 AM 26.8750 50.6020 293° West 404 465 34,000  Level FlightAware ADS-B
Sat 12:29:02 AM 26.9000 50.5370 293° West 404 465 34,000  Level FlightAware ADS-B
Sat 12:29:52 AM 26.9310 50.4550 293° West 404 465 34,000  Level FlightAware ADS-B
Sat 12:30:32 AM 26.9550 50.3890 292° West 404 465 34,000  Level FlightAware ADS-B
Sat 12:31:12 AM 26.9800 50.3240 293° West 404 465 34,000  Level FlightAware ADS-B
Sat 12:31:52 AM 27.0050 50.2580 293° West 404 465 34,000  Level FlightAware ADS-B
Sat 12:32:32 AM 27.0300 50.1920 293° West 404 465 34,000  Level FlightAware ADS-B
Sat 12:33:22 AM 27.0610 50.1100 293° West 404 465 34,000  Level FlightAware ADS-B
Sat 12:34:02 AM 27.0860 50.0440 293° West 404 465 34,000  Level FlightAware ADS-B
Sat 12:34:42 AM 27.1110 49.9790 293° West 404 465 34,000  Level FlightAware ADS-B
Sat 12:35:22 AM 27.1350 49.9130 292° West 404 465 34,000  Level FlightAware ADS-B
Sat 12:36:12 AM 27.1660 49.8310 293° West 404 465 34,000  Level FlightAware ADS-B
Sat 12:36:52 AM 27.1910 49.7650 293° West 404 465 34,000  Level FlightAware ADS-B
Sat 12:37:32 AM 27.2160 49.6990 293° West 404 465 34,000  Level FlightAware ADS-B
Sat 12:40:00 AM 27.4348 49.5036 322° Northwest  Level Estimated
Sat 12:41:00 AM 27.5234 49.4242 322° Northwest  Level Estimated
Sat 12:41:37 AM 27.8990 49.4300 322° Northwest 34,000  Level FlightAware ADS-B
Sat 12:42:02 AM 27.9310 49.4040 324° Northwest 428 493 34,000  Level FlightAware ADS-B
Sat 12:42:37 AM 27.9830 49.3620 325° Northwest 428 493 34,000  Level FlightAware ADS-B
Sat 12:43:22 AM 28.0770 49.3030 331° Northwest 440 506 34,000  Level FlightAware ADS-B
Sat 12:44:32 AM 28.1870 49.2340 331° Northwest 441 507 34,000  Level FlightAware ADS-B
Sat 12:45:27 AM 28.2820 49.1770 332° Northwest 439 505 34,000  Level FlightAware ADS-B
Sat 12:46:12 AM 28.3750 49.1190 331° Northwest 437 503 34,000  Level FlightAware ADS-B
Sat 12:46:47 AM 28.4340 49.0770 328° Northwest 431 496 34,000  Level FlightAware ADS-B
Sat 12:47:32 AM 28.5050 49.0250 327° Northwest 431 496 34,000  Level FlightAware ADS-B
Sat 12:48:17 AM 28.5880 48.9650 328° Northwest 431 496 34,000  Level FlightAware ADS-B
Sat 12:49:12 AM 28.6720 48.9050 328° Northwest 430 495 34,000  Level FlightAware ADS-B
Sat 12:49:52 AM 28.7430 48.8540 328° Northwest 429 494 34,000  Level FlightAware ADS-B
Sat 12:50:27 AM 28.8080 48.8070 328° Northwest 428 493 34,000  Level FlightAware ADS-B
Sat 12:51:32 AM 28.9120 48.7300 327° Northwest 423 487 34,000  Level FlightAware ADS-B
Sat 12:52:17 AM 28.9690 48.6890 328° Northwest 428 493 34,000  Level FlightAware ADS-B
Sat 12:52:57 AM 29.0580 48.6270 329° Northwest 426 490 34,000  Level FlightAware ADS-B
Sat 12:53:37 AM 29.1190 48.5820 327° Northwest 426 490 34,000  Level FlightAware ADS-B
Sat 12:54:12 AM 29.1850 48.5340 328° Northwest 426 490 34,000  Level FlightAware ADS-B
Sat 12:55:02 AM 29.2640 48.4770 328° Northwest 425 489 34,000  Level FlightAware ADS-B
Sat 12:55:42 AM 29.3350 48.4250 327° Northwest 422 486 34,000  Level FlightAware ADS-B
Sat 12:56:42 AM 29.4290 48.3550 327° Northwest 422 486 34,000  Level FlightAware ADS-B
Sat 12:57:17 AM 29.4850 48.3140 327° Northwest 421 484 34,000  Level FlightAware ADS-B
Sat 12:58:07 AM 29.5710 48.2510 328° Northwest 418 481 34,000  Level FlightAware ADS-B
Sat 12:59:17 AM 29.6800 48.1710 327° Northwest 421 484 34,000  Level FlightAware ADS-B
Sat 12:59:57 AM 29.7400 48.1260 327° Northwest 421 484 34,000  Level FlightAware ADS-B
Sat 01:00:37 AM 29.8120 48.0740 328° Northwest 421 484 34,000  Level FlightAware ADS-B
Sat 01:01:17 AM 29.8890 48.0170 327° Northwest 424 488 34,000  Level FlightAware ADS-B
Sat 01:02:02 AM 29.9710 47.9560 327° Northwest 427 491 34,000  Level FlightAware ADS-B
Sat 01:02:47 AM 30.0350 47.9000 323° Northwest 408 470 34,000  Level FlightAware ADS-B
Sat 01:03:27 AM 30.0850 47.8350 312° West 402 463 34,000  Level FlightAware ADS-B
Sat 01:04:12 AM 30.1390 47.7620 311° West 403 464 34,000  Level FlightAware ADS-B
Sat 01:05:02 AM 30.1920 47.6910 311° West 404 465 34,000  Level FlightAware ADS-B
Sat 01:05:47 AM 30.2500 47.6120 310° West 404 465 34,000  Level FlightAware ADS-B
Sat 01:06:27 AM 30.2910 47.5560 310° West 404 465 34,000  Level FlightAware ADS-B
Sat 01:07:07 AM 30.3320 47.5000 310° West 404 465 34,000  Level FlightAware ADS-B
Sat 01:07:47 AM 30.3730 47.4430 310° West 404 465 34,000  Level FlightAware ADS-B
Sat 01:08:37 AM 30.4240 47.3730 310° West 404 465 34,000  Level FlightAware ADS-B
Sat 01:09:17 AM 30.4650 47.3160 310° West 404 465 34,000  Level FlightAware ADS-B
Sat 01:09:57 AM 30.5060 47.2600 310° West 404 465 34,000  Level FlightAware ADS-B
Sat 01:10:37 AM 30.5460 47.2030 309° West 404 465 34,000  Level FlightAware ADS-B
Sat 01:11:17 AM 30.5870 47.1470 310° West 404 465 34,000  Level FlightAware ADS-B
Sat 01:12:07 AM 30.6380 47.0760 310° West 404 465 34,000  Level FlightAware ADS-B
Sat 01:12:47 AM 30.6790 47.0190 310° West 404 465 34,000  Level FlightAware ADS-B
Sat 01:13:27 AM 30.7200 46.9630 310° West 404 465 34,000  Level FlightAware ADS-B
Sat 01:13:57 AM 30.7510 46.9200 310° West 404 465 34,000  Level FlightAware ADS-B
Sat 01:14:37 AM 30.7910 46.8640 310° West 404 465 34,000  Level FlightAware ADS-B
Sat 01:15:17 AM 30.8320 46.8070 310° West 404 465 34,000  Level FlightAware ADS-B
Sat 01:17:00 AM 30.9805 46.6609 320° Northwest  Level Estimated
Sat 01:18:00 AM 31.0669 46.5756 320° Northwest  Level Estimated
Sat 01:19:00 AM 31.1533 46.4901 320° Northwest  Level Estimated
Sat 01:20:00 AM 31.2397 46.4045 320° Northwest  Level Estimated
Sat 01:21:00 AM 31.3259 46.3187 320° Northwest  Level Estimated
Sat 01:22:00 AM 31.4121 46.2327 320° Northwest  Level Estimated
Sat 01:23:00 AM 31.4983 46.1466 320° Northwest  Level Estimated
Sat 01:24:00 AM 31.5844 46.0603 320° Northwest  Level Estimated
Sat 01:25:00 AM 31.6704 45.9739 319° Northwest  Level Estimated
Sat 01:26:00 AM 31.7564 45.8873 319° Northwest  Level Estimated
Sat 01:27:00 AM 31.8423 45.8006 319° Northwest  Level Estimated
Sat 01:28:00 AM 31.9282 45.7137 319° Northwest  Level Estimated
Sat 01:29:00 AM 32.0140 45.6266 319° Northwest  Level Estimated
Sat 01:30:00 AM 32.0997 45.5394 319° Northwest  Level Estimated
Sat 01:31:00 AM 32.1854 45.4520 319° Northwest  Level Estimated
Sat 01:31:42 AM 32.5700 45.3260 319° Northwest 425 489 34,000  Level FlightAware ADS-B
Sat 01:32:17 AM 32.6250 45.2770 323° Northwest 425 489 34,000  Level FlightAware ADS-B
Sat 01:33:07 AM 32.7050 45.2040 322° Northwest 424 488 34,000  Level FlightAware ADS-B
Sat 01:33:47 AM 32.7640 45.1500 322° Northwest 425 489 34,000  Level FlightAware ADS-B
Sat 01:34:32 AM 32.8350 45.0850 322° Northwest 428 493 34,000  Level FlightAware ADS-B
Sat 01:35:12 AM 32.8980 45.0270 322° Northwest 429 494 34,000  Level FlightAware ADS-B
Sat 01:35:57 AM 32.9720 44.9590 322° Northwest 430 495 34,000  Level FlightAware ADS-B
Sat 01:36:37 AM 33.0350 44.9010 322° Northwest 431 496 34,000  Level FlightAware ADS-B
Sat 01:37:17 AM 33.0970 44.8440 322° Northwest 431 496 34,000  Level FlightAware ADS-B
Sat 01:38:02 AM 33.1680 44.7780 322° Northwest 432 497 34,000  Level FlightAware ADS-B
Sat 01:38:42 AM 33.2410 44.7250 329° Northwest 461 531 34,000  Level FlightAware ADS-B
Sat 01:39:27 AM 33.3320 44.6900 342° North 472 543 34,000  Level FlightAware ADS-B
Sat 01:40:07 AM 33.4150 44.6600 343° North 472 543 34,000  Level FlightAware ADS-B
Sat 01:40:47 AM 33.4990 44.6300 343° North 471 542 34,000  Level FlightAware ADS-B
Sat 01:41:32 AM 33.5880 44.5900 339° North 463 533 34,000  Level FlightAware ADS-B
Sat 01:42:12 AM 33.6670 44.5520 338° Northwest 462 532 34,000  Level FlightAware ADS-B
Sat 01:42:42 AM 33.7270 44.5220 337° Northwest 464 534 34,000  Level FlightAware ADS-B
Sat 01:43:22 AM 33.8070 44.4830 338° Northwest 465 535 34,000  Level FlightAware ADS-B
Sat 01:44:02 AM 33.8860 44.4440 338° Northwest 466 536 34,000  Level FlightAware ADS-B
Sat 01:44:47 AM 33.9750 44.3990 337° Northwest 466 536 34,000  Level FlightAware ADS-B
Sat 01:45:27 AM 34.0580 44.3580 338° Northwest 466 536 34,000  Level FlightAware ADS-B
Sat 01:46:12 AM 34.1430 44.3160 338° Northwest 467 537 34,000  Level FlightAware ADS-B
Sat 01:46:52 AM 34.2260 44.2750 338° Northwest 468 539 34,000  Level FlightAware ADS-B
Sat 01:47:37 AM 34.3190 44.2280 337° Northwest 468 539 34,000  Level FlightAware ADS-B
Sat 01:48:17 AM 34.4010 44.1880 338° Northwest 469 540 34,000  Level FlightAware ADS-B
Sat 01:48:57 AM 34.4800 44.1480 337° Northwest 470 541 34,000  Level FlightAware ADS-B
Sat 01:49:42 AM 34.5680 44.1020 337° Northwest 471 542 34,000  Level FlightAware ADS-B
Sat 01:50:22 AM 34.6480 44.0600 337° Northwest 472 543 34,000  Level FlightAware ADS-B
Sat 01:51:02 AM 34.7290 44.0180 337° Northwest 470 541 34,000  Level FlightAware ADS-B
Sat 01:51:47 AM 34.8200 43.9700 337° Northwest 470 541 34,000  Level FlightAware ADS-B
Sat 01:52:27 AM 34.9010 43.9270 336° Northwest 472 543 34,000  Level FlightAware ADS-B
Sat 01:53:07 AM 34.9810 43.8850 337° Northwest 472 543 34,000  Level FlightAware ADS-B
Sat 01:53:52 AM 35.0680 43.8390 337° Northwest 471 542 34,000  Level FlightAware ADS-B
Sat 01:54:37 AM 35.1610 43.7900 337° Northwest 471 542 34,000  Level FlightAware ADS-B
Sat 01:55:17 AM 35.2370 43.7490 336° Northwest 473 544 34,000  Level FlightAware ADS-B
Sat 01:55:57 AM 35.3210 43.7040 336° Northwest 476 548 34,000  Level FlightAware ADS-B
Sat 01:56:42 AM 35.4100 43.6570 337° Northwest 478 550 34,000  Level FlightAware ADS-B
Sat 01:57:17 AM 35.4830 43.6180 336° Northwest 481 554 34,000  Level FlightAware ADS-B
Sat 01:58:07 AM 35.5870 43.5630 337° Northwest 480 552 34,000  Level FlightAware ADS-B
Sat 01:58:47 AM 35.6660 43.5200 336° Northwest 480 552 34,000  Level FlightAware ADS-B
Sat 01:59:27 AM 35.7480 43.4760 336° Northwest 480 552 34,000  Level FlightAware ADS-B
Sat 02:00:07 AM 35.8310 43.4320 337° Northwest 480 552 34,000  Level FlightAware ADS-B
Sat 02:00:52 AM 35.9210 43.3830 336° Northwest 480 552 34,000  Level FlightAware ADS-B
Sat 02:01:37 AM 36.0130 43.3330 336° Northwest 481 554 34,000  Level FlightAware ADS-B
Sat 02:02:12 AM 36.0830 43.2950 336° Northwest 482 555 34,000  Level FlightAware ADS-B
Sat 02:02:57 AM 36.1760 43.2440 336° Northwest 483 556 34,000  Level FlightAware ADS-B
Sat 02:03:42 AM 36.2670 43.1940 336° Northwest 485 558 34,000  Level FlightAware ADS-B
Sat 02:04:22 AM 36.3480 43.1490 336° Northwest 487 560 34,000  Level FlightAware ADS-B
Sat 02:05:07 AM 36.4410 43.0980 336° Northwest 490 564 34,000  Level FlightAware ADS-B
Sat 02:05:47 AM 36.5260 43.0510 336° Northwest 490 564 34,000  Level FlightAware ADS-B
Sat 02:06:27 AM 36.6100 43.0040 336° Northwest 488 562 34,000  Level FlightAware ADS-B
Sat 02:07:12 AM 36.7010 42.9530 336° Northwest 491 565 34,000  Level FlightAware ADS-B
Sat 02:07:52 AM 36.7830 42.9080 336° Northwest 491 565 34,000  Level FlightAware ADS-B
Sat 02:08:32 AM 36.8670 42.8620 336° Northwest 494 568 34,000  Level FlightAware ADS-B
Sat 02:09:17 AM 36.9640 42.8080 336° Northwest 494 568 34,000  Level FlightAware ADS-B
Sat 02:09:57 AM 37.0480 42.7620 336° Northwest 493 567 34,000  Level FlightAware ADS-B
Sat 02:10:42 AM 37.1380 42.7110 336° Northwest 492 566 34,000  Level FlightAware ADS-B
Sat 02:11:22 AM 37.2200 42.6640 335° Northwest 488 562 34,000  Level FlightAware ADS-B
Sat 02:12:07 AM 37.2940 42.5750 316° Northwest 477 549 34,000  Level FlightAware ADS-B
Sat 02:12:47 AM 37.3480 42.4860 307° West 476 548 34,000  Level FlightAware ADS-B
Sat 02:13:27 AM 37.3990 42.3990 306° West 475 547 34,000  Level FlightAware ADS-B
Sat 02:14:12 AM 37.4580 42.3010 307° West 478 550 34,000  Level FlightAware ADS-B
Sat 02:14:52 AM 37.5110 42.2110 307° West 479 551 34,000  Level FlightAware ADS-B
Sat 02:15:32 AM 37.5640 42.1220 307° West 479 551 34,000  Level FlightAware ADS-B
Sat 02:16:17 AM 37.6250 42.0190 307° West 480 552 34,000  Level FlightAware ADS-B
Sat 02:17:02 AM 37.6840 41.9190 307° West 479 551 34,000  Level FlightAware ADS-B
Sat 02:17:42 AM 37.7350 41.8320 307° West 477 549 34,000  Level FlightAware ADS-B
Sat 02:18:22 AM 37.7880 41.7420 307° West 475 547 34,000  Level FlightAware ADS-B
Sat 02:19:02 AM 37.8410 41.6520 307° West 474 545 34,000  Level FlightAware ADS-B
Sat 02:19:47 AM 37.8950 41.5590 306° West 472 543 34,000  Level FlightAware ADS-B
Sat 02:20:27 AM 37.9460 41.4710 306° West 470 541 34,000  Level FlightAware ADS-B
Sat 02:21:12 AM 38.0080 41.3640 306° West 472 543 34,000  Level FlightAware ADS-B
Sat 02:21:52 AM 38.0550 41.2820 306° West 474 545 34,000  Level FlightAware ADS-B
Sat 02:22:32 AM 38.0990 41.2050 306° West 474 545 34,000  Level FlightAware ADS-B
Sat 02:23:12 AM 38.1430 41.1290 306° West 474 545 34,000  Level FlightAware ADS-B
Sat 02:23:52 AM 38.1870 41.0520 306° West 474 545 34,000  Level FlightAware ADS-B
Sat 02:24:42 AM 38.2420 40.9560 306° West 474 545 34,000  Level FlightAware ADS-B
Sat 02:25:22 AM 38.2850 40.8790 305° West 474 545 34,000  Level FlightAware ADS-B
Sat 02:26:02 AM 38.3290 40.8020 306° West 474 545 34,000 560 Level FlightAware ADS-B
Sat 02:26:37 AM 38.4620 40.6600 320° Northwest 477 549 34,700 525 Climbing FlightAware ADS-B
Sat 02:27:22 AM 38.5120 40.5680 305° West 477 549 34,700  Level FlightAware ADS-B
Sat 02:28:12 AM 38.5660 40.4700 305° West 477 549 34,700  Level FlightAware ADS-B
Sat 02:28:52 AM 38.6090 40.3910 305° West 477 549 34,700  Level FlightAware ADS-B
Sat 02:29:32 AM 38.6520 40.3130 305° West 477 549 34,700  Level FlightAware ADS-B
Sat 02:30:12 AM 38.6950 40.2340 305° West 477 549 34,700  Level FlightAware ADS-B
Sat 02:30:52 AM 38.7380 40.1550 305° West 477 549 34,700  Level FlightAware ADS-B
Sat 02:31:32 AM 38.7810 40.0760 305° West 477 549 34,700  Level FlightAware ADS-B
Sat 02:32:22 AM 38.8350 39.9780 305° West 477 549 34,700  Level FlightAware ADS-B
Sat 02:33:02 AM 38.8780 39.8990 305° West 477 549 34,700  Level FlightAware ADS-B
Sat 02:33:42 AM 38.9210 39.8200 305° West 477 549 34,700  Level FlightAware ADS-B
Sat 02:34:22 AM 38.9640 39.7410 305° West 477 549 34,700  Level FlightAware ADS-B
Sat 02:35:12 AM 39.0180 39.6420 305° West 477 549 34,700  Level FlightAware ADS-B
Sat 02:35:52 AM 39.0610 39.5630 305° West 477 549 34,700  Level FlightAware ADS-B
Sat 02:36:32 AM 39.1040 39.4840 305° West 477 549 34,700 42 Level FlightAware ADS-B
Sat 02:39:00 AM 39.2976 39.2243 314° West  Level Estimated
Sat 02:40:00 AM 39.3759 39.1186 314° West  Level Estimated
Sat 02:41:00 AM 39.4541 39.0126 314° West  Level Estimated
Sat 02:42:00 AM 39.5322 38.9064 314° West  Level Estimated
Sat 02:43:00 AM 39.6103 38.8000 314° West  Level Estimated
Sat 02:44:00 AM 39.6882 38.6934 314° West  Level Estimated
Sat 02:45:00 AM 39.7660 38.5865 313° West  Level Estimated
Sat 02:46:00 AM 39.8438 38.4793 313° West  Level Estimated
Sat 02:47:00 AM 39.9214 38.3719 313° West  Level Estimated
Sat 02:48:00 AM 39.9990 38.2643 313° West  Level Estimated
Sat 02:49:00 AM 40.0764 38.1564 313° West  Level Estimated
Sat 02:50:00 AM 40.1537 38.0483 313° West  Level Estimated
Sat 02:51:00 AM 40.2310 37.9400 313° West  Level Estimated
Sat 02:52:00 AM 40.3081 37.8314 313° West  Level Estimated
Sat 02:53:00 AM 40.3851 37.7225 313° West  Level Estimated
Sat 02:54:00 AM 40.4621 37.6134 313° West  Level Estimated
Sat 02:55:00 AM 40.5389 37.5040 313° West  Level Estimated
Sat 02:56:00 AM 40.6156 37.3944 313° West  Level Estimated
Sat 02:57:00 AM 40.6922 37.2846 313° West  Level Estimated
Sat 02:58:00 AM 40.7687 37.1744 313° West  Level Estimated
Sat 02:59:00 AM 40.8452 37.0641 312° West  Level Estimated
Sat 03:00:00 AM 40.9215 36.9534 312° West  Level Estimated
Sat 03:01:00 AM 40.9977 36.8426 312° West  Level Estimated
Sat 03:02:00 AM 41.0738 36.7314 312° West  Level Estimated
Sat 03:03:00 AM 41.1497 36.6200 312° West  Level Estimated
Sat 03:04:00 AM 41.2256 36.5084 312° West  Level Estimated
Sat 03:05:00 AM 41.3014 36.3965 312° West  Level Estimated
Sat 03:06:00 AM 41.3771 36.2843 312° West  Level Estimated
Sat 03:06:37 AM 41.4440 34.8220 312° West 36,000  Level FlightAware ADS-B
Sat 03:06:52 AM 41.4600 34.7860 301° West 476 548 36,000  Level FlightAware ADS-B
Sat 03:08:12 AM 41.5410 34.6090 301° West 475 547 36,000  Level FlightAware ADS-B
Sat 03:09:02 AM 41.6100 34.4610 302° West 477 549 36,000  Level FlightAware ADS-B
Sat 03:09:37 AM 41.6470 34.3790 301° West 477 549 36,000  Level FlightAware ADS-B
Sat 03:10:22 AM 41.7000 34.2640 302° West 476 548 36,000  Level FlightAware ADS-B
Sat 03:11:07 AM 41.7500 34.1550 302° West 473 544 36,000  Level FlightAware ADS-B
Sat 03:11:42 AM 41.7890 34.0680 301° West 471 542 36,000  Level FlightAware ADS-B
Sat 03:12:37 AM 41.8540 33.9240 301° West 475 547 36,000  Level FlightAware ADS-B
Sat 03:13:27 AM 41.9080 33.8030 301° West 477 549 36,000  Level FlightAware ADS-B
Sat 03:14:02 AM 41.9490 33.7050 299° West 476 548 36,000  Level FlightAware ADS-B
Sat 03:14:52 AM 41.9880 33.5730 292° West 474 545 36,000  Level FlightAware ADS-B
Sat 03:15:32 AM 42.0150 33.4690 289° West 473 544 36,000  Level FlightAware ADS-B
Sat 03:16:12 AM 42.0450 33.3550 290° West 474 545 36,000  Level FlightAware ADS-B
Sat 03:16:47 AM 42.0730 33.2520 290° West 474 545 36,000  Level FlightAware ADS-B
Sat 03:17:32 AM 42.1060 33.1270 290° West 474 545 36,000  Level FlightAware ADS-B
Sat 03:18:22 AM 42.1400 32.9970 289° West 475 547 36,000  Level FlightAware ADS-B
Sat 03:18:57 AM 42.1640 32.9050 289° West 474 545 36,000  Level FlightAware ADS-B
Sat 03:19:47 AM 42.2040 32.7540 290° West 473 544 36,000  Level FlightAware ADS-B
Sat 03:20:22 AM 42.2290 32.6560 289° West 473 544 36,000  Level FlightAware ADS-B
Sat 03:21:37 AM 42.2770 32.4680 289° West 474 545 36,000  Level FlightAware ADS-B
Sat 03:22:17 AM 42.3020 32.3730 290° West 474 545 36,000  Level FlightAware ADS-B
Sat 03:22:57 AM 42.3260 32.2770 289° West 474 545 36,000  Level FlightAware ADS-B
Sat 03:23:37 AM 42.3500 32.1820 289° West 474 545 36,000  Level FlightAware ADS-B
Sat 03:24:27 AM 42.4030 31.9720 289° West 475 547 36,000  Level FlightAware ADS-B
Sat 03:25:02 AM 42.4290 31.8720 289° West 475 547 36,000  Level FlightAware ADS-B
Sat 03:25:42 AM 42.4570 31.7590 289° West 478 550 36,000  Level FlightAware ADS-B
Sat 03:26:32 AM 42.4890 31.6280 288° West 473 544 36,000  Level FlightAware ADS-B
Sat 03:27:12 AM 42.5190 31.5060 288° West 475 547 36,000  Level FlightAware ADS-B
Sat 03:27:57 AM 42.5510 31.3780 289° West 476 548 36,000  Level FlightAware ADS-B
Sat 03:28:32 AM 42.5740 31.2810 288° West 476 548 36,000  Level FlightAware ADS-B
Sat 03:29:17 AM 42.6050 31.1560 289° West 475 547 36,000  Level FlightAware ADS-B
Sat 03:29:57 AM 42.6320 31.0420 288° West 475 547 36,000  Level FlightAware ADS-B
Sat 03:30:42 AM 42.6640 30.9100 288° West 474 545 36,000  Level FlightAware ADS-B
Sat 03:31:17 AM 42.6870 30.8150 288° West 474 545 36,000  Level FlightAware ADS-B
Sat 03:32:12 AM 42.7280 30.6720 291° West 470 541 36,000  Level FlightAware ADS-B
Sat 03:32:57 AM 42.7720 30.5500 296° West 471 542 36,000  Level FlightAware ADS-B
Sat 03:33:37 AM 42.8110 30.4460 297° West 471 542 36,000  Level FlightAware ADS-B
Sat 03:34:27 AM 42.8640 30.3040 297° West 473 544 36,000  Level FlightAware ADS-B
Sat 03:35:07 AM 42.9010 30.2050 297° West 473 544 36,000  Level FlightAware ADS-B
Sat 03:36:02 AM 42.9570 30.0540 297° West 474 545 36,000  Level FlightAware ADS-B
Sat 03:36:42 AM 42.9970 29.9440 296° West 475 547 36,000  Level FlightAware ADS-B
Sat 03:37:22 AM 43.0360 29.8390 297° West 475 547 36,000  Level FlightAware ADS-B
Sat 03:38:12 AM 43.0830 29.7120 297° West 475 547 36,000  Level FlightAware ADS-B
Sat 03:38:47 AM 43.1180 29.6140 296° West 477 549 36,000  Level FlightAware ADS-B
Sat 03:39:27 AM 43.1580 29.5050 297° West 477 549 36,000  Level FlightAware ADS-B
Sat 03:40:32 AM 43.2170 29.3410 296° West 478 550 36,000  Level FlightAware ADS-B
Sat 03:41:07 AM 43.2540 29.2380 296° West 479 551 36,000  Level FlightAware ADS-B
Sat 03:41:57 AM 43.2980 29.1160 296° West 478 550 36,000  Level FlightAware ADS-B
Sat 03:42:32 AM 43.3330 29.0150 296° West 478 550 36,000  Level FlightAware ADS-B
Sat 03:43:17 AM 43.3800 28.8840 296° West 478 550 36,000  Level FlightAware ADS-B
Sat 03:44:12 AM 43.4320 28.7380 296° West 479 551 36,000  Level FlightAware ADS-B
Sat 03:44:52 AM 43.4700 28.6290 296° West 479 551 36,000  Level FlightAware ADS-B
Sat 03:45:27 AM 43.5060 28.5280 296° West 480 552 36,000  Level FlightAware ADS-B
Sat 03:46:12 AM 43.5490 28.4030 295° West 482 555 36,000  Level FlightAware ADS-B
Sat 03:47:02 AM 43.5950 28.2720 296° West 483 556 36,000  Level FlightAware ADS-B
Sat 03:47:42 AM 43.6340 28.1590 296° West 484 557 36,000  Level FlightAware ADS-B
Sat 03:48:22 AM 43.6730 28.0460 296° West 484 557 36,000  Level FlightAware ADS-B
Sat 03:49:02 AM 43.7110 27.9330 295° West 484 557 36,000  Level FlightAware ADS-B
Sat 03:49:52 AM 43.7570 27.7980 295° West 486 559 36,000  Level FlightAware ADS-B
Sat 03:50:32 AM 43.7940 27.6900 295° West 484 557 36,000  Level FlightAware ADS-B
Sat 03:51:12 AM 43.8360 27.5670 295° West 485 558 36,000  Level FlightAware ADS-B
Sat 03:51:57 AM 43.8790 27.4390 295° West 486 559 36,000  Level FlightAware ADS-B
Sat 03:52:32 AM 43.9120 27.3410 295° West 487 560 36,000  Level FlightAware ADS-B
Sat 03:53:22 AM 43.9580 27.2020 295° West 488 562 36,000  Level FlightAware ADS-B
Sat 03:54:02 AM 43.9960 27.0880 295° West 488 562 36,000  Level FlightAware ADS-B
Sat 03:54:42 AM 44.0350 26.9760 296° West 487 560 36,000  Level FlightAware ADS-B
Sat 03:55:17 AM 44.0790 26.8800 303° West 485 558 36,000  Level FlightAware ADS-B
Sat 03:56:07 AM 44.1420 26.7610 306° West 483 556 36,000  Level FlightAware ADS-B
Sat 03:56:47 AM 44.1980 26.6550 306° West 483 556 36,000  Level FlightAware ADS-B
Sat 03:57:47 AM 44.2760 26.5080 307° West 485 558 36,000  Level FlightAware ADS-B
Sat 03:58:42 AM 44.3470 26.3710 306° West 484 557 36,000  Level FlightAware ADS-B
Sat 03:59:22 AM 44.3990 26.2720 306° West 485 558 36,000  Level FlightAware ADS-B
Sat 04:00:02 AM 44.4530 26.1670 306° West 485 558 36,000  Level FlightAware ADS-B
Sat 04:00:47 AM 44.5100 26.0580 306° West 484 557 36,000  Level FlightAware ADS-B
Sat 04:01:27 AM 44.5650 25.9510 306° West 485 558 36,000  Level FlightAware ADS-B
Sat 04:02:02 AM 44.6130 25.8580 306° West 486 559 36,000  Level FlightAware ADS-B
Sat 04:02:52 AM 44.6740 25.7380 306° West 485 558 36,000  Level FlightAware ADS-B
Sat 04:03:37 AM 44.7350 25.6200 306° West 485 558 36,000  Level FlightAware ADS-B
Sat 04:04:07 AM 44.7760 25.5390 306° West 486 559 36,000  Level FlightAware ADS-B
Sat 04:04:57 AM 44.8410 25.4130 306° West 487 560 36,000  Level FlightAware ADS-B
Sat 04:05:42 AM 44.9040 25.2990 308° West 489 563 36,000  Level FlightAware ADS-B
Sat 04:06:22 AM 44.9590 25.2000 308° West 489 563 36,000  Level FlightAware ADS-B
Sat 04:07:02 AM 45.0180 25.0990 310° West 487 560 36,000  Level FlightAware ADS-B
Sat 04:07:47 AM 45.0790 24.9910 309° West 485 558 36,000  Level FlightAware ADS-B
Sat 04:08:32 AM 45.1430 24.8780 309° West 486 559 36,000  Level FlightAware ADS-B
Sat 04:09:12 AM 45.2020 24.7730 309° West 487 560 36,000  Level FlightAware ADS-B
Sat 04:09:52 AM 45.2530 24.6830 309° West 486 559 36,000  Level FlightAware ADS-B
Sat 04:10:37 AM 45.3160 24.5690 308° West 487 560 36,000  Level FlightAware ADS-B
Sat 04:11:17 AM 45.3740 24.4660 309° West 489 563 36,000  Level FlightAware ADS-B
Sat 04:11:57 AM 45.4290 24.3660 308° West 490 564 36,000  Level FlightAware ADS-B
Sat 04:12:42 AM 45.4920 24.2530 309° West 491 565 36,000  Level FlightAware ADS-B
Sat 04:13:22 AM 45.5500 24.1470 308° West 489 563 36,000  Level FlightAware ADS-B
Sat 04:14:07 AM 45.6080 24.0400 308° West 490 564 36,000  Level FlightAware ADS-B
Sat 04:14:47 AM 45.6620 23.9410 308° West 492 566 36,000  Level FlightAware ADS-B
Sat 04:15:27 AM 45.7220 23.8330 309° West 493 567 36,000  Level FlightAware ADS-B
Sat 04:16:07 AM 45.7760 23.7320 307° West 491 565 36,000  Level FlightAware ADS-B
Sat 04:17:07 AM 45.8580 23.5800 308° West 483 556 36,000  Level FlightAware ADS-B
Sat 04:17:47 AM 45.9140 23.4760 308° West 479 551 36,000  Level FlightAware ADS-B
Sat 04:18:32 AM 45.9740 23.3640 308° West 478 550 36,000  Level FlightAware ADS-B
Sat 04:19:12 AM 46.0300 23.2600 308° West 478 550 36,000  Level FlightAware ADS-B
Sat 04:19:52 AM 46.0820 23.1610 307° West 479 551 36,000  Level FlightAware ADS-B
Sat 04:20:32 AM 46.1390 23.0540 308° West 481 554 36,000  Level FlightAware ADS-B
Sat 04:22:17 AM 46.2820 22.7810 307° West 36,000  Level FlightAware ADS-B
Sat 04:24:00 AM 46.4030 22.5607 309° West  Level Estimated
Sat 04:25:00 AM 46.4733 22.4319 308° West  Level Estimated
Sat 04:26:00 AM 46.5435 22.3028 308° West  Level Estimated
Sat 04:27:00 AM 46.6135 22.1734 308° West  Level Estimated
Sat 04:27:37 AM 46.6990 21.9730 308° West 467 537 36,000  Level FlightAware ADS-B
Sat 04:28:17 AM 46.7510 21.8700 306° West 466 536 36,000  Level FlightAware ADS-B
Sat 04:29:02 AM 46.8090 21.7560 307° West 466 536 36,000  Level FlightAware ADS-B
Sat 04:29:42 AM 46.8610 21.6530 306° West 470 541 36,000  Level FlightAware ADS-B
Sat 04:30:27 AM 46.9180 21.5380 306° West 469 540 36,000  Level FlightAware ADS-B
Sat 04:31:07 AM 46.9690 21.4370 307° West 470 541 36,000  Level FlightAware ADS-B
Sat 04:31:47 AM 47.0220 21.3300 306° West 471 542 36,000  Level FlightAware ADS-B
Sat 04:32:32 AM 47.0790 21.2150 306° West 470 541 36,000  Level FlightAware ADS-B
Sat 04:33:12 AM 47.1300 21.1120 306° West 469 540 36,000  Level FlightAware ADS-B
Sat 04:33:57 AM 47.1870 20.9960 306° West 469 540 36,000  Level FlightAware ADS-B
Sat 04:34:37 AM 47.2370 20.8950 306° West 468 539 36,000  Level FlightAware ADS-B
Sat 04:35:22 AM 47.2940 20.7760 305° West 468 539 36,000  Level FlightAware ADS-B
Sat 04:36:02 AM 47.3440 20.6740 306° West 468 539 36,000  Level FlightAware ADS-B
Sat 04:36:42 AM 47.3950 20.5690 306° West 468 539 36,000  Level FlightAware ADS-B
Sat 04:37:27 AM 47.4500 20.4530 305° West 468 539 36,000  Level FlightAware ADS-B
Sat 04:38:07 AM 47.5010 20.3470 305° West 469 540 36,000  Level FlightAware ADS-B
Sat 04:38:47 AM 47.5500 20.2450 305° West 463 533 36,000  Level FlightAware ADS-B
Sat 04:39:32 AM 47.6060 20.1270 305° West 462 532 36,000  Level FlightAware ADS-B
Sat 04:40:17 AM 47.6630 20.0070 305° West 462 532 36,000  Level FlightAware ADS-B
Sat 04:40:47 AM 47.6990 19.9320 306° West 463 533 36,000  Level FlightAware ADS-B
Sat 04:41:32 AM 47.7560 19.8100 305° West 463 533 36,000  Level FlightAware ADS-B
Sat 04:42:12 AM 47.8060 19.7040 305° West 462 532 36,000  Level FlightAware ADS-B
Sat 04:43:07 AM 47.8730 19.5610 305° West 462 532 36,000  Level FlightAware ADS-B
Sat 04:44:22 AM 47.9650 19.3620 305° West 462 532 36,000  Level FlightAware ADS-B
Sat 04:45:17 AM 48.0340 19.2130 305° West 463 533 36,000  Level FlightAware ADS-B
Sat 04:45:57 AM 48.0840 19.1100 306° West 467 537 36,000  Level FlightAware ADS-B
Sat 04:46:37 AM 48.1390 19.0120 310° West 467 537 36,000  Level FlightAware ADS-B
Sat 04:48:32 AM 48.2950 18.7370 311° West 469 540 36,000  Level FlightAware ADS-B
Sat 04:49:42 AM 48.3930 18.5640 311° West 463 533 36,000  Level FlightAware ADS-B
Sat 04:50:47 AM 48.4840 18.4010 310° West 464 534 36,000  Level FlightAware ADS-B
Sat 04:51:27 AM 48.5400 18.3010 310° West 463 533 36,000  Level FlightAware ADS-B
Sat 04:52:17 AM 48.6080 18.1780 310° West 463 533 36,000  Level FlightAware ADS-B
Sat 04:53:22 AM 48.6960 18.0180 310° West 464 534 36,000  Level FlightAware ADS-B
Sat 04:54:07 AM 48.7650 17.8930 310° West 470 541 36,000  Level FlightAware ADS-B
Sat 04:54:52 AM 48.8290 17.7760 310° West 470 541 36,000  Level FlightAware ADS-B
Sat 04:55:47 AM 48.8900 17.6270 302° West 468 539 36,000  Level FlightAware ADS-B
Sat 04:56:32 AM 48.9300 17.4930 294° West 468 539 36,000  Level FlightAware ADS-B
Sat 04:57:12 AM 48.9630 17.3810 294° West 468 539 36,000  Level FlightAware ADS-B
Sat 04:57:52 AM 49.0010 17.2520 294° West 468 539 36,000  Level FlightAware ADS-B
Sat 04:58:37 AM 49.0420 17.1120 294° West 469 540 36,000  Level FlightAware ADS-B
Sat 04:59:17 AM 49.0750 16.9960 294° West 470 541 36,000  Level FlightAware ADS-B
Sat 05:00:02 AM 49.1150 16.8610 294° West 471 542 36,000  Level FlightAware ADS-B
Sat 05:00:42 AM 49.1490 16.7420 294° West 471 542 36,000  Level FlightAware ADS-B
Sat 05:01:27 AM 49.1900 16.5970 293° West 472 543 36,000  Level FlightAware ADS-B
Sat 05:02:07 AM 49.2250 16.4740 294° West 472 543 36,000  Level FlightAware ADS-B
Sat 05:02:47 AM 49.2590 16.3550 294° West 472 543 36,000  Level FlightAware ADS-B
Sat 05:03:32 AM 49.2990 16.2130 293° West 472 543 36,000  Level FlightAware ADS-B
Sat 05:04:12 AM 49.3340 16.0890 293° West 470 541 36,000  Level FlightAware ADS-B
Sat 05:04:57 AM 49.3710 15.9550 293° West 470 541 36,000  Level FlightAware ADS-B
Sat 05:05:37 AM 49.4040 15.8350 293° West 470 541 36,000  Level FlightAware ADS-B
Sat 05:06:07 AM 49.4290 15.7470 294° West 470 541 36,000  Level FlightAware ADS-B
Sat 05:07:02 AM 49.4730 15.5850 293° West 469 540 36,000  Level FlightAware ADS-B
Sat 05:07:42 AM 49.5100 15.4510 293° West 472 543 36,000  Level FlightAware ADS-B
Sat 05:08:22 AM 49.5430 15.3290 293° West 473 544 36,000  Level FlightAware ADS-B
Sat 05:09:07 AM 49.5800 15.1920 293° West 474 545 36,000  Level FlightAware ADS-B
Sat 05:09:47 AM 49.6140 15.0660 293° West 473 544 36,000  Level FlightAware ADS-B
Sat 05:10:32 AM 49.6520 14.9220 292° West 473 544 36,000  Level FlightAware ADS-B
Sat 05:11:12 AM 49.6850 14.7960 292° West 471 542 36,000  Level FlightAware ADS-B
Sat 05:11:52 AM 49.7180 14.6710 292° West 471 542 36,000  Level FlightAware ADS-B
Sat 05:12:37 AM 49.7560 14.5300 293° West 471 542 36,000  Level FlightAware ADS-B
Sat 05:13:17 AM 49.7880 14.4060 292° West 471 542 36,000  Level FlightAware ADS-B
Sat 05:14:02 AM 49.8230 14.2720 292° West 470 541 36,000  Level FlightAware ADS-B
Sat 05:14:37 AM 49.8480 14.1750 292° West 470 541 36,000  Level FlightAware ADS-B
Sat 05:15:22 AM 49.8860 14.0260 292° West 467 537 36,000  Level FlightAware ADS-B
Sat 05:16:07 AM 49.9230 13.8790 291° West 467 537 36,000  Level FlightAware ADS-B
Sat 05:16:47 AM 49.9550 13.7530 292° West 468 539 36,000  Level FlightAware ADS-B
Sat 05:17:32 AM 49.9890 13.6190 292° West 470 541 36,000  Level FlightAware ADS-B
Sat 05:18:12 AM 50.0220 13.4880 291° West 469 540 36,000  Level FlightAware ADS-B
Sat 05:18:52 AM 50.0500 13.3740 291° West 468 539 36,000  Level FlightAware ADS-B
Sat 05:19:37 AM 50.0860 13.2290 291° West 466 536 36,000  Level FlightAware ADS-B
Sat 05:20:17 AM 50.1170 13.1040 291° West 465 535 36,000  Level FlightAware ADS-B
Sat 05:21:02 AM 50.1520 12.9600 291° West 467 537 36,000  Level FlightAware ADS-B
Sat 05:21:42 AM 50.1820 12.8360 291° West 467 537 36,000  Level FlightAware ADS-B
Sat 05:22:17 AM 50.2080 12.7290 291° West 468 539 36,000  Level FlightAware ADS-B
Sat 05:22:57 AM 50.2380 12.6060 291° West 469 540 36,000  Level FlightAware ADS-B
Sat 05:23:47 AM 50.2880 12.4530 297° West 474 545 36,000  Level FlightAware ADS-B
Sat 05:24:27 AM 50.3320 12.3290 299° West 474 545 36,000  Level FlightAware ADS-B
Sat 05:25:22 AM 50.3900 12.1700 300° West 474 545 36,000  Level FlightAware ADS-B
Sat 05:26:07 AM 50.4410 12.0300 300° West 469 540 36,000  Level FlightAware ADS-B
Sat 05:26:52 AM 50.4880 11.9010 300° West 468 539 36,000  Level FlightAware ADS-B
Sat 05:27:32 AM 50.5280 11.7900 300° West 467 537 36,000  Level FlightAware ADS-B
Sat 05:28:27 AM 50.5860 11.6280 299° West 469 540 36,000  Level FlightAware ADS-B
Sat 05:29:02 AM 50.6220 11.5260 299° West 470 541 36,000  Level FlightAware ADS-B
Sat 05:29:52 AM 50.6810 11.3590 299° West 472 543 36,000  Level FlightAware ADS-B
Sat 05:30:32 AM 50.7240 11.2380 299° West 475 547 36,000  Level FlightAware ADS-B
Sat 05:31:17 AM 50.7710 11.1040 299° West 476 548 36,000  Level FlightAware ADS-B
Sat 05:31:57 AM 50.8120 10.9840 298° West 474 545 36,000  Level FlightAware ADS-B
Sat 05:32:42 AM 50.8610 10.8450 299° West 473 544 36,000  Level FlightAware ADS-B
Sat 05:33:22 AM 50.9020 10.7230 298° West 474 545 36,000  Level FlightAware ADS-B
Sat 05:34:02 AM 50.9440 10.6010 299° West 473 544 36,000  Level FlightAware ADS-B
Sat 05:34:47 AM 50.9900 10.4680 299° West 472 543 36,000  Level FlightAware ADS-B
Sat 05:35:27 AM 51.0330 10.3410 298° West 471 542 36,000  Level FlightAware ADS-B
Sat 05:36:07 AM 51.0730 10.2220 298° West 464 534 36,000  Level FlightAware ADS-B
Sat 05:36:47 AM 51.1130 10.1020 298° West 464 534 36,000  Level FlightAware ADS-B
Sat 05:37:32 AM 51.1600 9.9630 298° West 466 536 36,000  Level FlightAware ADS-B
Sat 05:38:27 AM 51.2150 9.7970 298° West 470 541 36,000  Level FlightAware ADS-B
Sat 05:39:12 AM 51.2610 9.6580 298° West 471 542 36,000  Level FlightAware ADS-B
Sat 05:39:52 AM 51.3000 9.5410 298° West 473 544 36,000  Level FlightAware ADS-B
Sat 05:40:37 AM 51.3490 9.3900 298° West 474 545 36,000  Level FlightAware ADS-B
Sat 05:41:12 AM 51.3840 9.2800 297° West 476 548 36,000  Level FlightAware ADS-B
Sat 05:41:57 AM 51.4300 9.1380 297° West 480 552 36,000  Level FlightAware ADS-B
Sat 05:42:37 AM 51.4690 9.0200 298° West 481 554 36,000  Level FlightAware ADS-B
Sat 05:43:37 AM 51.5330 8.8180 297° West 481 554 36,000  Level FlightAware ADS-B
Sat 05:44:22 AM 51.5790 8.6740 297° West 482 555 36,000  Level FlightAware ADS-B
Sat 05:45:02 AM 51.6190 8.5480 297° West 483 556 36,000  Level FlightAware ADS-B
Sat 05:45:37 AM 51.6520 8.4430 297° West 483 556 36,000  Level FlightAware ADS-B
Sat 05:46:22 AM 51.6980 8.2950 297° West 485 558 36,000  Level FlightAware ADS-B
Sat 05:47:02 AM 51.7410 8.1570 297° West 486 559 36,000  Level FlightAware ADS-B
Sat 05:47:47 AM 51.7860 8.0110 297° West 486 559 36,000  Level FlightAware ADS-B
Sat 05:48:47 AM 51.8470 7.8130 297° West 485 558 36,000  Level FlightAware ADS-B
Sat 05:49:22 AM 51.8790 7.7090 297° West 485 558 36,000  Level FlightAware ADS-B
Sat 05:50:02 AM 51.9200 7.5720 296° West 485 558 36,000  Level FlightAware ADS-B
Sat 05:50:42 AM 51.9600 7.4390 296° West 483 556 36,000  Level FlightAware ADS-B
Sat 05:51:32 AM 52.0040 7.2930 296° West 476 548 36,000  Level FlightAware ADS-B
Sat 05:52:17 AM 52.0490 7.1430 296° West 470 541 36,000  Level FlightAware ADS-B
Sat 05:52:57 AM 52.0870 7.0130 295° West 467 537 36,000  Level FlightAware ADS-B
Sat 05:53:37 AM 52.1250 6.8840 296° West 467 537 36,000  Level FlightAware ADS-B
Sat 05:54:22 AM 52.1640 6.7530 296° West 468 539 36,000  Level FlightAware ADS-B
Sat 05:55:02 AM 52.2030 6.6190 295° West 474 545 36,000  Level FlightAware ADS-B
Sat 05:55:47 AM 52.2470 6.4660 295° West 474 545 36,000  Level FlightAware ADS-B
Sat 05:56:27 AM 52.2820 6.3450 295° West 474 545 36,000  Level FlightAware ADS-B
Sat 05:57:12 AM 52.3250 6.1960 295° West 475 547 36,000  Level FlightAware ADS-B
Sat 05:57:52 AM 52.3580 6.0780 295° West 476 548 36,000  Level FlightAware ADS-B
Sat 05:58:32 AM 52.3960 5.9440 295° West 476 548 36,000  Level FlightAware ADS-B
Sat 05:59:17 AM 52.4410 5.7850 295° West 477 549 36,000 -1,200 Level FlightAware ADS-B
Sat 05:59:47 AM 52.4639 5.6738 295° West 472 543 34,500  Descending FlightAware UK
Sat 05:59:57 AM 52.4760 5.6590 295° West 477 549 36,000  Climbing FlightAware ADS-B
Sat 06:00:17 AM 52.4967 5.5787 295° West 466 536 34,500 -2,368 Descending FlightAware UK
Sat 06:00:35 AM 52.5151 5.5203 297° West 468 539 34,500 3,600 Level FlightAware UK
Sat 06:00:42 AM 52.5160 5.5160 297° West 479 551 36,000  Climbing FlightAware ADS-B
Sat 06:01:05 AM 52.5416 5.4207 297° West 466 536 34,500  Descending FlightAware UK
Sat 06:01:22 AM 52.5550 5.3760 297° West 480 552 36,000 1,579 Climbing FlightAware ADS-B
Sat 06:02:02 AM 52.5900 5.2470 294° West 479 551 36,000 -1,343 Level FlightAware ADS-B
Sat 06:02:29 AM 52.6160 5.1407 294° West 472 543 34,500  Descending FlightAware UK
Sat 06:02:47 AM 52.6340 5.0880 294° West 478 550 36,000  Climbing FlightAware ADS-B
Sat 06:03:05 AM 52.6519 5.0228 294° West 472 543 34,500  Descending FlightAware UK
Sat 06:03:27 AM 52.6690 4.9550 294° West 477 549 36,000  Climbing FlightAware ADS-B
Sat 06:03:53 AM 52.6959 4.8639 294° West 470 541 34,500  Descending FlightAware UK
Sat 06:04:07 AM 52.7050 4.8230 294° West 476 548 36,000  Climbing FlightAware ADS-B
Sat 06:04:41 AM 52.7378 4.7047 294° West 468 539 34,500  Descending FlightAware UK
Sat 06:04:52 AM 52.7430 4.6810 294° West 477 549 36,000  Climbing FlightAware ADS-B
Sat 06:05:23 AM 52.7745 4.5660 294° West 470 541 34,500  Descending FlightAware UK
Sat 06:05:32 AM 52.7790 4.5500 294° West 477 549 36,000 1,837 Climbing FlightAware ADS-B
Sat 06:06:12 AM 52.8140 4.4140 293° West 474 545 36,000  Level FlightAware ADS-B
Sat 06:07:12 AM 52.8660 4.2180 294° West 469 540 36,000 -1,011 Level FlightAware ADS-B
Sat 06:07:41 AM 52.8947 4.1101 294° West 464 534 34,500  Descending FlightAware UK
Sat 06:07:52 AM 52.9000 4.0870 294° West 471 542 36,000  Climbing FlightAware ADS-B
Sat 06:08:35 AM 52.9388 3.9300 294° West 464 534 34,500  Descending FlightAware UK
Sat 06:08:37 AM 52.9370 3.9300 294° West 479 551 36,000  Climbing FlightAware ADS-B
Sat 06:08:59 AM 52.9535 3.8450 294° West 466 536 34,500 -2,250 Descending FlightAware UK
Sat 06:09:17 AM 52.9651 3.7815 287° West 466 536 34,500 5,000 Level FlightAware UK
Sat 06:09:17 AM 52.9630 3.7900 287° West 481 554 36,000 2,250 Climbing FlightAware ADS-B
Sat 06:09:57 AM 52.9880 3.6480 286° West 482 555 36,000 -1,500 Level FlightAware ADS-B
Sat 06:10:17 AM 53.0015 3.5683 286° West 470 541 34,500  Descending FlightAware UK
Sat 06:10:42 AM 53.0140 3.4930 286° West 481 554 36,000  Climbing FlightAware ADS-B
Sat 06:11:11 AM 53.0329 3.3770 286° West 468 539 34,500  Descending FlightAware UK
Sat 06:11:27 AM 53.0410 3.3290 286° West 480 552 36,000 1,765 Climbing FlightAware ADS-B
Sat 06:12:02 AM 53.0590 3.2180 285° West 478 550 36,000  Level FlightAware ADS-B
Sat 06:12:47 AM 53.0870 3.0490 285° West 477 549 36,000 -1,304 Level FlightAware ADS-B
Sat 06:13:11 AM 53.1024 2.9521 285° West 468 539 34,500 -2,143 Descending FlightAware UK
Sat 06:13:29 AM 53.1126 2.8887 285° West 468 539 34,500 4,286 Level FlightAware UK
Sat 06:13:32 AM 53.1130 2.8880 285° West 474 545 36,000 2,093 Climbing FlightAware ADS-B
Sat 06:14:12 AM 53.1350 2.7470 285° West 470 541 36,000 -1,452 Level FlightAware ADS-B
Sat 06:14:34 AM 53.1498 2.6576 285° West 468 539 34,500  Descending FlightAware UK
Sat 06:14:57 AM 53.1600 2.5890 285° West 468 539 36,000 1,429 Climbing FlightAware ADS-B
Sat 06:15:37 AM 53.1820 2.4520 285° West 469 540 36,000 -1,343 Level FlightAware ADS-B
Sat 06:16:04 AM 53.1988 2.3441 285° West 468 539 34,500  Descending FlightAware UK
Sat 06:16:17 AM 53.2040 2.3110 285° West 467 537 36,000  Climbing FlightAware ADS-B
Sat 06:16:34 AM 53.2148 2.2405 285° West 468 539 34,500  Descending FlightAware UK
Sat 06:17:02 AM 53.2280 2.1540 285° West 467 537 36,000 1,324 Climbing FlightAware ADS-B
Sat 06:17:42 AM 53.2500 2.0140 285° West 467 537 36,000 -1,607 Level FlightAware ADS-B
Sat 06:17:58 AM 53.2598 1.9483 285° West 468 539 34,500 -2,250 Descending FlightAware UK
Sat 06:18:22 AM 53.2723 1.8654 284° West 466 536 34,500 3,750 Level FlightAware UK
Sat 06:18:22 AM 53.2710 1.8760 284° West 467 537 36,000  Climbing FlightAware ADS-B
Sat 06:18:40 AM 53.2816 1.8026 284° West 468 539 34,500 -2,500 Descending FlightAware UK
Sat 06:18:58 AM 53.2911 1.7399 284° West 466 536 34,500 3,333 Level FlightAware UK
Sat 06:19:07 AM 53.2940 1.7200 284° West 466 536 36,000  Climbing FlightAware ADS-B
Sat 06:19:22 AM 53.3037 1.6561 284° West 470 541 34,500  Descending FlightAware UK
Sat 06:19:47 AM 53.3150 1.5800 284° West 465 535 36,000 1,957 Climbing FlightAware ADS-B
Sat 06:20:08 AM 53.3273 1.4967 284° West 464 534 36,000 -2,195 Level FlightAware ADS-B
Sat 06:20:28 AM 53.3377 1.4271 284° West 470 541 34,500  Descending FlightAware UK
Sat 06:20:39 AM 53.3428 1.3913 284° West 462 532 36,000 -600 Climbing FlightAware ADS-B
Sat 06:20:58 AM 53.3529 1.3232 284° West 462 532 34,200 -1,125 Descending FlightAware UK
Sat 06:21:11 AM 53.3591 1.2800 284° West 456 525 35,400 -1,400 Climbing FlightAware ADS-B
Sat 06:21:28 AM 53.3675 1.2223 284° West 460 529 33,500 -3,943 Descending FlightAware UK
Sat 06:21:46 AM 53.3763 1.1617 284° West 456 525 33,100 2,750 Descending FlightAware UK
Sat 06:21:52 AM 53.3780 1.1520 284° West 444 511 34,600 2,000 Climbing FlightAware ADS-B
Sat 06:22:13 AM 53.3895 1.0703 283° West 447 514 34,000 -4,167 Descending FlightAware ADS-B
Sat 06:22:28 AM 53.3966 1.0220 283° West 444 511 32,100 -1,313 Descending FlightAware UK
Sat 06:23:17 AM 53.4180 0.8680 283° West 435 501 32,600 -1,477 Climbing FlightAware ADS-B
Sat 06:23:33 AM 53.4273 0.8051 283° West 438 504 30,500 -4,350 Descending FlightAware UK
Sat 06:23:57 AM 53.4380 0.7295 283° West 432 497 29,700 1,448 Descending FlightAware UK
Sat 06:24:02 AM 53.4390 0.7240 283° West 424 488 31,200 267 Climbing FlightAware ADS-B
Sat 06:24:42 AM 53.4560 0.5980 283° West 414 476 29,900 -1,941 Descending FlightAware ADS-B
Sat 06:25:10 AM 53.4693 0.5032 283° West 410 472 29,000 -3,765 Descending FlightAware ADS-B
Sat 06:25:33 AM 53.4796 0.4291 283° West 414 476 26,700 -1,463 Descending FlightAware UK
Sat 06:25:51 AM 53.4866 0.3778 283° West 403 464 28,000 -333 Climbing FlightAware ADS-B
Sat 06:26:09 AM 53.4945 0.3210 283° West 410 472 26,500  Descending FlightAware UK
Sat 06:26:21 AM 53.4990 0.2867 283° West 402 463 28,000 2,143 Climbing FlightAware ADS-B
Sat 06:26:51 AM 53.5115 0.1931 283° West 403 464 28,000  Level FlightAware ADS-B
Sat 06:27:24 AM 53.5245 0.0958 283° West 403 464 28,000  Level FlightAware ADS-B
Sat 06:27:57 AM 53.5382 -0.0071 283° West 403 464 28,000  Level FlightAware ADS-B
Sat 06:28:36 AM 53.5538 -0.1259 283° West 402 463 28,000 -938 Level FlightAware ADS-B
Sat 06:29:33 AM 53.5763 -0.2987 283° West 410 472 26,500  Descending FlightAware UK
Sat 06:29:37 AM 53.5770 -0.3010 283° West 402 463 28,000 2,108 Climbing FlightAware ADS-B
Sat 06:30:10 AM 53.5907 -0.4096 282° West 401 461 27,800 -2,597 Descending FlightAware ADS-B
Sat 06:30:44 AM 53.6042 -0.5161 282° West 402 463 25,100 -1,957 Descending FlightAware UK
Sat 06:30:56 AM 53.6083 -0.5471 282° West 401 461 26,300 571 Climbing FlightAware ADS-B
Sat 06:31:26 AM 53.6196 -0.6369 282° West 388 447 25,500 -907 Descending FlightAware ADS-B
Sat 06:32:22 AM 53.6400 -0.7940 282° West 381 438 25,000 -1,833 Descending FlightAware ADS-B
Sat 06:32:38 AM 53.6462 -0.8484 282° West 392 451 23,300 -2,000 Descending FlightAware UK
Sat 06:33:07 AM 53.6550 -0.9190 282° West 390 449 23,500 -2,875 Climbing FlightAware ADS-B
Sat 06:33:26 AM 53.6638 -0.9908 282° West 404 465 21,000 -2,400 Descending FlightAware UK
Sat 06:33:52 AM 53.6730 -1.0620 282° West 393 452 21,700 -2,125 Climbing FlightAware ADS-B
Sat 06:34:14 AM 53.6814 -1.1338 282° West 394 453 19,300 -1,800 Descending FlightAware UK
Sat 06:34:32 AM 53.6860 -1.1750 282° West 386 444 20,500 724 Climbing FlightAware ADS-B
Sat 06:35:12 AM 53.7000 -1.2890 282° West 362 417 20,000 -353 Descending FlightAware ADS-B
Sat 06:35:57 AM 53.7190 -1.4090 285° West 359 413 20,000 -1,452 Level FlightAware ADS-B
Sat 06:36:14 AM 53.7410 -1.4554 285° West 368 423 18,500  Descending FlightAware UK
Sat 06:36:22 AM 53.7470 -1.4620 285° West 358 412 20,000  Climbing FlightAware ADS-B
Sat 06:36:38 AM 53.7744 -1.4914 285° West 366 421 18,500  Descending FlightAware UK
Sat 06:36:57 AM 53.7980 -1.5150 285° West 357 411 20,000 1,525 Climbing FlightAware ADS-B
Sat 06:37:37 AM 53.8520 -1.5700 329° Northwest 357 411 20,000 -1,932 Level FlightAware ADS-B
Sat 06:37:56 AM 53.8844 -1.6033 329° Northwest 364 419 18,100 -1,600 Descending FlightAware UK
Sat 06:38:22 AM 53.9180 -1.6380 329° Northwest 358 412 18,800 -2,000 Climbing FlightAware ADS-B
Sat 06:38:38 AM 53.9440 -1.6644 329° Northwest 362 417 16,700 -4,235 Descending FlightAware UK
Sat 06:38:56 AM 53.9694 -1.6907 329° Northwest 358 412 16,400 3,000 Descending FlightAware UK
Sat 06:39:02 AM 53.9750 -1.6960 329° Northwest 351 404 17,900 -1,000 Climbing FlightAware ADS-B
Sat 06:39:20 AM 54.0023 -1.7247 329° Northwest 352 405 16,000 -1,067 Descending FlightAware UK
Sat 06:39:47 AM 54.0350 -1.7580 329° Northwest 347 399 17,100 -1,125 Climbing FlightAware ADS-B
Sat 06:40:08 AM 54.0676 -1.7926 329° Northwest 348 400 15,100 -1,200 Descending FlightAware UK
Sat 06:40:27 AM 54.0880 -1.8140 329° Northwest 346 398 16,300 -1,000 Climbing FlightAware ADS-B
Sat 06:40:44 AM 54.1182 -1.8390 329° Northwest 342 394 14,500 -600 Descending FlightAware UK
Sat 06:40:57 AM 54.1350 -1.8430 329° Northwest 343 395 16,000 -800 Climbing FlightAware ADS-B
Sat 06:41:14 AM 54.1657 -1.8412 329° Northwest 336 387 14,100 -960 Descending FlightAware UK
Sat 06:41:22 AM 54.1690 -1.8410 329° Northwest 336 387 15,600 -1,167 Climbing FlightAware ADS-B
Sat 06:41:50 AM 54.2226 -1.8354 329° Northwest 330 380 13,400 -1,200 Descending FlightAware UK
Sat 06:42:02 AM 54.2330 -1.8340 329° Northwest 325 374 14,800 -1,200 Climbing FlightAware ADS-B
Sat 06:42:20 AM 54.2682 -1.8313 329° Northwest 322 371 12,800 -3,833 Descending FlightAware UK
Sat 06:42:38 AM 54.2952 -1.8282 North 316 364 12,500 2,667 Descending FlightAware UK
Sat 06:42:47 AM 54.3020 -1.8270 North 320 368 14,000 -200 Climbing FlightAware ADS-B
Sat 06:43:08 AM 54.3403 -1.8157 North 322 371 12,400  Descending FlightAware UK
Sat 06:43:27 AM 54.3620 -1.8070 North 319 367 14,000 1,627 Climbing FlightAware ADS-B
Sat 06:44:07 AM 54.4170 -1.7840 North 329 379 14,000 -2,341 Level FlightAware ADS-B
Sat 06:44:08 AM 54.4290 -1.7795 North 316 364 12,400 -6,947 Descending FlightAware UK
Sat 06:44:26 AM 54.4558 -1.7683 North 316 364 11,800 769 Descending FlightAware UK
Sat 06:44:47 AM 54.4820 -1.7570 14° North 326 375 12,900 -1,500 Climbing FlightAware ADS-B
Sat 06:44:50 AM 54.4910 -1.7535 14° North 316 364 11,200 -4,182 Descending FlightAware UK
Sat 06:45:20 AM 54.5348 -1.7358 14° North 308 354 10,600 894 Descending FlightAware UK
Sat 06:45:37 AM 54.5490 -1.7310 14° North 320 368 11,900 -1,429 Climbing FlightAware ADS-B
Sat 06:46:02 AM 54.5947 -1.7124 14° North 306 352 9,600 -1,500 Descending FlightAware UK
Sat 06:46:17 AM 54.6060 -1.7070 14° North 317 365 10,900 -1,333 Climbing FlightAware ADS-B
Sat 06:46:38 AM 54.6460 -1.6914 14° North 298 343 8,800 -1,029 Descending FlightAware UK
Sat 06:46:52 AM 54.6570 -1.6870 13° North 306 352 10,300 -667 Climbing FlightAware ADS-B
Sat 06:46:56 AM 54.6710 -1.6816 13° North 282 325 8,600 -1,029 Descending FlightAware UK
Sat 06:47:27 AM 54.7020 -1.6700 12° North 280 322 9,700 -1,556 Climbing FlightAware ADS-B
Sat 06:47:50 AM 54.7389 -1.6558 12° North 258 297 7,200 -1,680 Descending FlightAware UK
Sat 06:47:52 AM 54.7320 -1.6590 12° North 271 312 9,000 1,500 Climbing FlightAware ADS-B
Sat 06:48:22 AM 54.7670 -1.6450 13° North 268 308 8,000 -2,057 Descending FlightAware ADS-B
Sat 06:48:27 AM 54.7750 -1.6420 12° North 263 303 7,800 -2,100 Descending FlightAware ADS-B
Sat 06:49:02 AM 54.8210 -1.6210 15° North 264 304 6,600 -2,954 Descending FlightAware ADS-B
Sat 06:49:32 AM 54.8566 -1.5935 15° North 242 278 4,600 -800 Descending FlightAware UK
Sat 06:49:32 AM 54.8540 -1.5970 15° North 259 298 6,200 -1,000 Climbing FlightAware ADS-B
Sat 06:49:50 AM 54.8748 -1.5731 15° North 240 276 4,300 -960 Descending FlightAware UK
Sat 06:49:57 AM 54.8800 -1.5670 15° North 253 291 5,800 1,622 Climbing FlightAware ADS-B
Sat 06:50:27 AM 54.9070 -1.5370 33° Northeast 243 280 5,300 -900 Descending FlightAware ADS-B
Sat 06:50:57 AM 54.9330 -1.5060 34° Northeast 222 255 4,900 -2,681 Descending FlightAware ADS-B
Sat 06:51:14 AM 54.9508 -1.4860 34° Northeast 202 232 3,200 -480 Descending FlightAware UK
Sat 06:51:22 AM 54.9550 -1.4810 34° Northeast 213 245 4,700 -1,250 Climbing FlightAware ADS-B
Sat 06:51:38 AM 54.9702 -1.4641 34° Northeast 190 219 2,700 -1,400 Descending FlightAware UK
Sat 06:51:52 AM 54.9790 -1.4540 34° Northeast 205 236 4,000 2,276 Climbing FlightAware ADS-B
Sat 06:52:07 AM 54.9900 -1.4410 34° Northeast 204 235 3,800 -900 Descending FlightAware ADS-B
Sat 06:52:32 AM 55.0070 -1.4220 33° Northeast 204 235 3,400 -800 Descending FlightAware ADS-B
Sat 06:53:07 AM 55.0400 -1.3870 31° Northeast 209 241 3,000 -667 Descending FlightAware ADS-B
Sat 06:53:17 AM 55.0490 -1.3840 11° North 205 236 2,900 -600 Descending FlightAware ADS-B
Sat 06:53:47 AM 55.0750 -1.3980 343° North 196 226 2,600 -667 Descending FlightAware ADS-B
Sat 06:54:02 AM 55.0860 -1.4110 326° Northwest 190 219 2,400 -720 Descending FlightAware ADS-B
Sat 06:54:12 AM 55.0900 -1.4240 298° West 185 213 2,300 -3,800 Descending FlightAware ADS-B
Sat 06:54:32 AM 55.0919 -1.4572 298° West 1 1 500 -600 Descending FlightAware UK
Sat 06:54:42 AM 55.0930 -1.4650 298° West 182 209 2,000 2,229 Climbing FlightAware ADS-B
Sat 06:55:07 AM 55.0870 -1.5020 254° West 175 201 1,800 -450 Descending FlightAware ADS-B
Sat 06:55:22 AM 55.0830 -1.5220 251° West 173 199 1,700 -667 Descending FlightAware ADS-B
Sat 06:55:52 AM 55.0730 -1.5570 243° Southwest 158 182 1,300 -800 Descending FlightAware ADS-B
Sat 06:56:22 AM 55.0650 -1.5890 246° West 140 161 900 -764 Descending FlightAware ADS-B
Sat 06:56:47 AM 55.0580 -1.6140 244° Southwest 136 157 600 -720 Descending FlightAware ADS-B
Sat 06:57:12 AM 55.0520 -1.6380 246° West 136 157 300 -750 Descending FlightAware ADS-B
Sat 06:57:27 AM 55.0480 -1.6530 245° Southwest 133 153 100 -800 Descending FlightAware ADS-B
Sat 06:58:02 AM 55.0400 -1.6810 244° Southwest 131 151 -171 Descending FlightAware ADS-B
Sat 07:00:00 AM 55.0375 -1.6917 248° West  Level Estimated
Sat 07:01:00 AM 55.0375 -1.6917 90° East  Level Estimated
Sat 07:02:00 AM 55.0375 -1.6917 90° East  Level Estimated
Sat 07:03:00 AM 55.0375 -1.6917 90° East  Level Estimated
Sat 07:04:00 AM 55.0375 -1.6917 90° East  Level Estimated
Sat 07:05:00 AM 55.0375 -1.6917 90° East  Level Estimated
Sat 07:06:00 AM 55.0375 -1.6917 90° East  Level Estimated
Sat 07:07:00 AM 55.0375 -1.6917 90° East  Level Estimated

Login

Don't have an account? Register now (free) for customized features, flight alerts, and more!